JAI15B VOBL-VOMM
Flight info
| Callsign | JAI15B |
|---|---|
| Flight time | 0h 30m |
| Altitude | 17000 |
| Route | BIA W116 MMV |
| Aircraft | A339/H-SADE1E2E3GHIJ3J5M1P2RWXY/LB2D1 |
Departure
| Time | 2026-05-06 16:20 |
|---|---|
| Airport | Kempegowda International Airport Bengaluru (VOBL) |
Arrival
| Time | 2026-05-06 16:50 |
|---|---|
| Airport | Chennai International Airport (VOMM) |
| Time | Latitude | Longitude | Altitude | Speed | Heading |
|---|---|---|---|---|---|
| 2026-05-06 16:03 | 13.20185 | 77.70586 | 3017 ft | 0 kts | 180° |
| 2026-05-06 16:10 | 13.20184 | 77.70613 | 3017 ft | 0 kts | 180° |
| 2026-05-06 16:14 | 13.20197 | 77.70613 | 3020 ft | 4 kts | 175° |
| 2026-05-06 16:14 | 13.20223 | 77.70609 | 3022 ft | 4 kts | 172° |
| 2026-05-06 16:14 | 13.20227 | 77.70604 | 3021 ft | 3 kts | 210° |
| 2026-05-06 16:15 | 13.20244 | 77.70615 | 3025 ft | 4 kts | 164° |
| 2026-05-06 16:15 | 13.20247 | 77.70616 | 3025 ft | 0 kts | 154° |
| 2026-05-06 16:15 | 13.20246 | 77.70616 | 3025 ft | 0 kts | 154° |
| 2026-05-06 16:15 | 13.20243 | 77.70615 | 3025 ft | 1 kts | 166° |
| 2026-05-06 16:16 | 13.20234 | 77.70605 | 3022 ft | 2 kts | 219° |
| 2026-05-06 16:16 | 13.20238 | 77.70586 | 3017 ft | 4 kts | 282° |
| 2026-05-06 16:16 | 13.20250 | 77.70541 | 3017 ft | 10 kts | 284° |
| 2026-05-06 16:16 | 13.20271 | 77.70456 | 3021 ft | 15 kts | 282° |
| 2026-05-06 16:17 | 13.20344 | 77.70394 | 3017 ft | 15 kts | 360° |
| 2026-05-06 16:17 | 13.20465 | 77.70392 | 3017 ft | 19 kts | 360° |
| 2026-05-06 16:17 | 13.20531 | 77.70337 | 3017 ft | 11 kts | 279° |
| 2026-05-06 16:17 | 13.20536 | 77.70252 | 3018 ft | 14 kts | 273° |
| 2026-05-06 16:18 | 13.20538 | 77.70145 | 3018 ft | 16 kts | 270° |
| 2026-05-06 16:18 | 13.20638 | 77.70021 | 3021 ft | 11 kts | 62° |
| 2026-05-06 16:19 | 13.20680 | 77.70099 | 3017 ft | 15 kts | 66° |
| 2026-05-06 16:19 | 13.20701 | 77.70358 | 3017 ft | 73 kts | 90° |
| 2026-05-06 16:19 | 13.20697 | 77.71158 | 3018 ft | 147 kts | 91° |
| 2026-05-06 16:19 | 13.20684 | 77.72372 | 3228 ft | 184 kts | 91° |
| 2026-05-06 16:20 | 13.20702 | 77.73713 | 3917 ft | 187 kts | 93° |
| 2026-05-06 16:20 | 13.20549 | 77.74977 | 4942 ft | 174 kts | 101° |
| 2026-05-06 16:20 | 13.20285 | 77.76250 | 5408 ft | 192 kts | 103° |
| 2026-05-06 16:20 | 13.19976 | 77.77668 | 5741 ft | 215 kts | 102° |
| 2026-05-06 16:21 | 13.19654 | 77.79256 | 6061 ft | 237 kts | 101° |
| 2026-05-06 16:21 | 13.19333 | 77.81001 | 6304 ft | 260 kts | 100° |
| 2026-05-06 16:21 | 13.19000 | 77.82896 | 6671 ft | 274 kts | 99° |
| 2026-05-06 16:21 | 13.18668 | 77.84834 | 7314 ft | 277 kts | 99° |
| 2026-05-06 16:22 | 13.18332 | 77.86797 | 7962 ft | 280 kts | 99° |
| 2026-05-06 16:22 | 13.17992 | 77.88777 | 8603 ft | 284 kts | 98° |
| 2026-05-06 16:22 | 13.17645 | 77.90794 | 9253 ft | 288 kts | 98° |
| 2026-05-06 16:22 | 13.17294 | 77.92832 | 9928 ft | 291 kts | 98° |
| 2026-05-06 16:23 | 13.16936 | 77.94907 | 10337 ft | 304 kts | 98° |
| 2026-05-06 16:23 | 13.16558 | 77.97110 | 10524 ft | 324 kts | 98° |
| 2026-05-06 16:23 | 13.16154 | 77.99458 | 10716 ft | 341 kts | 99° |
| 2026-05-06 16:23 | 13.15734 | 78.01877 | 11205 ft | 346 kts | 99° |
| 2026-05-06 16:24 | 13.15309 | 78.04323 | 11765 ft | 350 kts | 99° |
| 2026-05-06 16:24 | 13.14878 | 78.06805 | 12317 ft | 354 kts | 99° |
| 2026-05-06 16:24 | 13.14444 | 78.09307 | 12882 ft | 358 kts | 99° |
| 2026-05-06 16:24 | 13.14002 | 78.11845 | 13406 ft | 363 kts | 99° |
| 2026-05-06 16:25 | 13.13559 | 78.14397 | 13933 ft | 366 kts | 99° |
| 2026-05-06 16:25 | 13.13262 | 78.16113 | 14255 ft | 369 kts | 99° |
| 2026-05-06 16:25 | 13.12656 | 78.19598 | 14913 ft | 373 kts | 99° |
| 2026-05-06 16:25 | 13.12354 | 78.21340 | 15229 ft | 376 kts | 99° |
| 2026-05-06 16:26 | 13.11892 | 78.23996 | 15718 ft | 379 kts | 99° |
| 2026-05-06 16:26 | 13.11425 | 78.26672 | 16191 ft | 383 kts | 99° |
| 2026-05-06 16:26 | 13.10956 | 78.29368 | 16659 ft | 386 kts | 99° |
| 2026-05-06 16:26 | 13.10481 | 78.32091 | 16896 ft | 389 kts | 99° |
| 2026-05-06 16:27 | 13.09999 | 78.34843 | 16966 ft | 398 kts | 99° |
| 2026-05-06 16:27 | 13.09507 | 78.37664 | 16960 ft | 402 kts | 99° |
| 2026-05-06 16:27 | 13.09016 | 78.40474 | 16959 ft | 401 kts | 99° |
| 2026-05-06 16:27 | 13.08527 | 78.43268 | 16957 ft | 401 kts | 99° |
| 2026-05-06 16:28 | 13.08040 | 78.46047 | 16954 ft | 401 kts | 99° |
| 2026-05-06 16:28 | 13.07541 | 78.48897 | 16954 ft | 401 kts | 99° |
| 2026-05-06 16:28 | 13.07046 | 78.51717 | 16953 ft | 401 kts | 99° |
| 2026-05-06 16:28 | 13.06551 | 78.54544 | 16950 ft | 407 kts | 99° |
| 2026-05-06 16:29 | 13.06039 | 78.57459 | 16949 ft | 422 kts | 99° |
| 2026-05-06 16:29 | 13.05514 | 78.60453 | 16944 ft | 429 kts | 99° |
| 2026-05-06 16:29 | 13.04983 | 78.63470 | 16941 ft | 429 kts | 99° |
| 2026-05-06 16:29 | 13.04453 | 78.66478 | 16938 ft | 429 kts | 100° |
| 2026-05-06 16:30 | 13.03975 | 78.69493 | 16930 ft | 428 kts | 95° |
| 2026-05-06 16:30 | 13.03877 | 78.71511 | 16916 ft | 428 kts | 91° |
| 2026-05-06 16:30 | 13.03727 | 78.75573 | 16491 ft | 423 kts | 91° |
| 2026-05-06 16:30 | 13.03616 | 78.78573 | 15884 ft | 419 kts | 91° |
| 2026-05-06 16:31 | 13.03506 | 78.81504 | 15184 ft | 413 kts | 91° |
| 2026-05-06 16:31 | 13.03396 | 78.84425 | 14388 ft | 407 kts | 91° |
| 2026-05-06 16:31 | 13.03288 | 78.87297 | 13616 ft | 400 kts | 91° |
| 2026-05-06 16:31 | 13.03179 | 78.90130 | 12825 ft | 392 kts | 91° |
| 2026-05-06 16:32 | 13.03074 | 78.92896 | 12019 ft | 385 kts | 91° |
| 2026-05-06 16:32 | 13.02973 | 78.95619 | 11333 ft | 377 kts | 91° |
| 2026-05-06 16:32 | 13.02873 | 78.98303 | 11048 ft | 379 kts | 91° |
| 2026-05-06 16:32 | 13.02770 | 79.00993 | 10933 ft | 378 kts | 91° |
| 2026-05-06 16:33 | 13.02667 | 79.03672 | 10834 ft | 377 kts | 91° |
| 2026-05-06 16:33 | 13.02563 | 79.06361 | 10599 ft | 375 kts | 91° |
| 2026-05-06 16:33 | 13.02460 | 79.09022 | 10366 ft | 373 kts | 91° |
| 2026-05-06 16:34 | 13.02256 | 79.14312 | 9904 ft | 368 kts | 91° |
| 2026-05-06 16:34 | 13.02155 | 79.16883 | 9725 ft | 352 kts | 91° |
| 2026-05-06 16:34 | 13.02058 | 79.19327 | 9341 ft | 335 kts | 91° |
| 2026-05-06 16:34 | 13.01967 | 79.21655 | 8965 ft | 320 kts | 91° |
| 2026-05-06 16:35 | 13.01881 | 79.23888 | 8595 ft | 306 kts | 91° |
| 2026-05-06 16:35 | 13.01799 | 79.26016 | 8209 ft | 293 kts | 91° |
| 2026-05-06 16:35 | 13.01720 | 79.28047 | 7859 ft | 281 kts | 91° |
| 2026-05-06 16:35 | 13.01643 | 79.30031 | 7501 ft | 277 kts | 91° |
| 2026-05-06 16:36 | 13.01566 | 79.32017 | 7151 ft | 278 kts | 91° |
| 2026-05-06 16:36 | 13.01490 | 79.33970 | 6949 ft | 273 kts | 91° |
| 2026-05-06 16:36 | 13.01414 | 79.35933 | 6884 ft | 276 kts | 91° |
| 2026-05-06 16:36 | 13.01335 | 79.37910 | 6875 ft | 277 kts | 91° |
| 2026-05-06 16:37 | 13.01255 | 79.39873 | 6870 ft | 277 kts | 91° |
| 2026-05-06 16:37 | 13.01176 | 79.41845 | 6871 ft | 276 kts | 91° |
| 2026-05-06 16:37 | 13.01099 | 79.43817 | 6866 ft | 276 kts | 91° |
| 2026-05-06 16:37 | 13.01020 | 79.45786 | 6866 ft | 277 kts | 91° |
| 2026-05-06 16:38 | 13.00941 | 79.47755 | 6864 ft | 276 kts | 91° |
| 2026-05-06 16:38 | 13.00862 | 79.49713 | 6697 ft | 273 kts | 91° |
| 2026-05-06 16:38 | 13.00784 | 79.51651 | 6288 ft | 272 kts | 91° |
| 2026-05-06 16:38 | 13.00708 | 79.53530 | 6111 ft | 254 kts | 91° |
| 2026-05-06 16:39 | 13.00637 | 79.55287 | 5871 ft | 241 kts | 91° |
| 2026-05-06 16:39 | 13.00570 | 79.56969 | 5433 ft | 239 kts | 91° |
| 2026-05-06 16:39 | 13.00505 | 79.58678 | 4996 ft | 239 kts | 92° |
| 2026-05-06 16:39 | 13.00437 | 79.60384 | 4572 ft | 238 kts | 92° |
| 2026-05-06 16:40 | 13.00370 | 79.62076 | 4191 ft | 235 kts | 92° |
| 2026-05-06 16:40 | 13.00303 | 79.63718 | 4054 ft | 228 kts | 92° |
| 2026-05-06 16:40 | 13.00235 | 79.65381 | 4028 ft | 236 kts | 92° |
| 2026-05-06 16:40 | 13.00166 | 79.67067 | 4030 ft | 236 kts | 92° |
| 2026-05-06 16:41 | 13.00063 | 79.68750 | 4034 ft | 236 kts | 96° |
| 2026-05-06 16:41 | 12.99749 | 79.70399 | 4030 ft | 236 kts | 105° |
| 2026-05-06 16:41 | 12.99411 | 79.72044 | 4032 ft | 235 kts | 99° |
| 2026-05-06 16:41 | 12.99166 | 79.73654 | 4030 ft | 222 kts | 99° |
| 2026-05-06 16:42 | 12.98926 | 79.75222 | 4032 ft | 225 kts | 99° |
| 2026-05-06 16:42 | 12.98684 | 79.76808 | 4026 ft | 225 kts | 99° |
| 2026-05-06 16:42 | 12.98445 | 79.78389 | 4029 ft | 224 kts | 98° |
| 2026-05-06 16:42 | 12.98208 | 79.79956 | 4024 ft | 215 kts | 99° |
| 2026-05-06 16:43 | 12.97986 | 79.81424 | 3929 ft | 203 kts | 99° |
| 2026-05-06 16:43 | 12.97774 | 79.82847 | 3675 ft | 201 kts | 98° |
| 2026-05-06 16:43 | 12.97564 | 79.84265 | 3398 ft | 201 kts | 99° |
| 2026-05-06 16:43 | 12.97369 | 79.85677 | 3153 ft | 199 kts | 98° |
| 2026-05-06 16:44 | 12.97174 | 79.87080 | 2906 ft | 199 kts | 99° |
| 2026-05-06 16:44 | 12.96991 | 79.88483 | 2643 ft | 197 kts | 98° |
| 2026-05-06 16:44 | 12.96813 | 79.89869 | 2407 ft | 195 kts | 99° |
| 2026-05-06 16:44 | 12.96648 | 79.91247 | 2347 ft | 198 kts | 99° |
| 2026-05-06 16:45 | 12.96481 | 79.92641 | 2323 ft | 194 kts | 99° |
| 2026-05-06 16:45 | 12.96324 | 79.94014 | 2320 ft | 195 kts | 98° |
| 2026-05-06 16:45 | 12.96157 | 79.95398 | 2319 ft | 197 kts | 99° |
| 2026-05-06 16:45 | 12.95984 | 79.96794 | 2324 ft | 196 kts | 99° |
| 2026-05-06 16:46 | 12.95816 | 79.98168 | 2321 ft | 196 kts | 98° |
| 2026-05-06 16:46 | 12.95643 | 79.99562 | 2326 ft | 195 kts | 98° |
| 2026-05-06 16:46 | 12.95472 | 80.00932 | 2218 ft | 194 kts | 99° |
| 2026-05-06 16:46 | 12.95305 | 80.02308 | 1928 ft | 192 kts | 98° |
| 2026-05-06 16:47 | 12.95138 | 80.03647 | 1833 ft | 192 kts | 99° |
| 2026-05-06 16:47 | 12.95023 | 80.05020 | 1829 ft | 192 kts | 92° |
| 2026-05-06 16:47 | 12.95181 | 80.06383 | 1820 ft | 195 kts | 79° |
| 2026-05-06 16:47 | 12.95571 | 80.07696 | 1579 ft | 186 kts | 72° |
| 2026-05-06 16:48 | 12.96023 | 80.08895 | 1327 ft | 175 kts | 71° |
| 2026-05-06 16:48 | 12.96443 | 80.10018 | 1112 ft | 164 kts | 72° |
| 2026-05-06 16:48 | 12.96830 | 80.11056 | 917 ft | 149 kts | 71° |
| 2026-05-06 16:48 | 12.97185 | 80.12002 | 764 ft | 145 kts | 72° |
| 2026-05-06 16:49 | 12.97555 | 80.13016 | 545 ft | 148 kts | 71° |
| 2026-05-06 16:49 | 12.97941 | 80.13970 | 378 ft | 148 kts | 69° |
| 2026-05-06 16:49 | 12.98315 | 80.14947 | 205 ft | 144 kts | 72° |
| 2026-05-06 16:49 | 12.98656 | 80.15928 | 63 ft | 143 kts | 70° |
| 2026-05-06 16:50 | 12.98963 | 80.16760 | 54 ft | 97 kts | 69° |
| 2026-05-06 16:50 | 12.99108 | 80.17197 | 56 ft | 17 kts | 99° |
| 2026-05-06 16:50 | 12.99052 | 80.17223 | 56 ft | 11 kts | 163° |
| 2026-05-06 16:50 | 12.98969 | 80.17236 | 56 ft | 13 kts | 187° |
| 2026-05-06 16:51 | 12.98913 | 80.17154 | 56 ft | 16 kts | 245° |
| 2026-05-06 16:51 | 12.98868 | 80.17029 | 59 ft | 21 kts | 250° |
| 2026-05-06 16:51 | 12.98807 | 80.16866 | 59 ft | 39 kts | 248° |
| 2026-05-06 16:51 | 12.98691 | 80.16561 | 58 ft | 39 kts | 251° |
| 2026-05-06 16:52 | 12.98640 | 80.16419 | 54 ft | 18 kts | 249° |
| 2026-05-06 16:52 | 12.98590 | 80.16285 | 59 ft | 23 kts | 249° |
| 2026-05-06 16:52 | 12.98484 | 80.16151 | 55 ft | 27 kts | 204° |
| 2026-05-06 16:52 | 12.98375 | 80.16033 | 58 ft | 19 kts | 249° |
| 2026-05-06 16:53 | 12.98233 | 80.15986 | 51 ft | 0 kts | 157° |